PWSweather.com
Personal Weather Stations
Station Observations
DW6359
Southwest Cambria, Cambria, WI 53923

Southwest CambriaCambria, WI 53923

Lat: 43.541194, Lon: -89.11275

Elevation: 945

Station Type: Davis Vantage Pro2

http://home.centurytel.net/weathercambria/wxcambria.html

High Low Average
Temperature 25.6°F-3.6°C 16.4°F-8.7°C 21.2°F-6.0°C
Dew Point 19.0°F-7.2°C 9.8°F-12.3°C 12.9°F-10.6°C
Winds 17.0 mph 27.4 kmh Calm Calm 5.0 mph W8.0 kmh W
Wind Gusts 18.0 mph29.0 kmh -- 2.0 mph3.2 kmh
Humidity 83% 52% 71%
Pressure 30.79 in1042.7 mb 30.33 in1027.1 mb -
Precipitation 0.00 in0.0 mm - -
Hour Temp Dew Point Humidity Winds Wind Gusts Pressure Precip Precip Rate Daily Precip Total
12:00 AM 24.6°F-4.1°C 19.6°F-6.9°C 81% 11.0 mph W17.7 kmh W -- 30.30 in1026.1 mb 0.00 in0.0 mm 0.00 in0.0 mm 0.35 in8.9 mm
12:05 AM 24.6°F-4.1°C 19.6°F-6.9°C 81% 14.0 mph NW22.5 kmh NW -- 30.29 in1025.7 mb 0.00 in0.0 mm 0.00 in0.0 mm 0.35 in8.9 mm
12:10 AM 24.4°F-4.2°C 19.4°F-7.0°C 81% 9.0 mph WNW14.5 kmh WNW -- 30.30 in1026.1 mb 0.00 in0.0 mm 0.00 in0.0 mm 0.35 in8.9 mm
12:15 AM 24.3°F-4.3°C 19.3°F-7.1°C 81% 8.0 mph NW12.9 kmh NW -- 30.30 in1026.1 mb 0.00 in0.0 mm 0.00 in0.0 mm 0.35 in8.9 mm
12:20 AM 24.2°F-4.3°C 19.5°F-6.9°C 82% 14.0 mph NW22.5 kmh NW -- 30.30 in1026.1 mb 0.00 in0.0 mm 0.00 in0.0 mm 0.35 in8.9 mm
12:25 AM 23.9°F-4.5°C 18.9°F-7.3°C 81% 10.0 mph NW16.1 kmh NW -- 30.30 in1026.1 mb 0.00 in0.0 mm 0.00 in0.0 mm 0.35 in8.9 mm
12:30 AM 23.8°F-4.6°C 18.8°F-7.3°C 81% 14.0 mph NW22.5 kmh NW -- 30.32 in1026.8 mb 0.00 in0.0 mm 0.00 in0.0 mm 0.35 in8.9 mm
12:35 AM 23.6°F-4.7°C 18.9°F-7.3°C 82% 8.0 mph W12.9 kmh W -- 30.32 in1026.8 mb 0.00 in0.0 mm 0.00 in0.0 mm 0.35 in8.9 mm
12:40 AM 23.5°F-4.7°C 18.8°F-7.3°C 82% 10.0 mph W16.1 kmh W 19.0 mph30.6 kmh 30.32 in1026.8 mb 0.00 in0.0 mm 0.00 in0.0 mm 0.35 in8.9 mm
12:45 AM 23.5°F-4.7°C 18.8°F-7.3°C 82% 12.0 mph NW19.3 kmh NW 19.0 mph30.6 kmh 30.32 in1026.8 mb 0.00 in0.0 mm 0.00 in0.0 mm 0.35 in8.9 mm
12:50 AM 23.4°F-4.8°C 18.7°F-7.4°C 82% 13.0 mph W20.9 kmh W -- 30.32 in1026.8 mb 0.00 in0.0 mm 0.00 in0.0 mm 0.35 in8.9 mm
12:55 AM 23.4°F-4.8°C 18.7°F-7.4°C 82% 5.0 mph NW8.0 kmh NW -- 30.33 in1027.1 mb 0.00 in0.0 mm 0.00 in0.0 mm 0.35 in8.9 mm
01:00 AM 23.4°F-4.8°C 19.0°F-7.2°C 83% 8.0 mph NW12.9 kmh NW -- 30.33 in1027.1 mb 0.00 in0.0 mm 0.00 in0.0 mm 0.00 in0.0 mm
01:05 AM 23.4°F-4.8°C 19.0°F-7.2°C 83% 7.0 mph NNW11.3 kmh NNW -- 30.34 in1027.4 mb 0.00 in0.0 mm 0.00 in0.0 mm 0.00 in0.0 mm
01:10 AM 23.4°F-4.8°C 19.0°F-7.2°C 83% 5.0 mph W8.0 kmh W -- 30.35 in1027.8 mb 0.00 in0.0 mm 0.00 in0.0 mm 0.00 in0.0 mm
01:15 AM 23.4°F-4.8°C 19.0°F-7.2°C 83% 10.0 mph WNW16.1 kmh WNW -- 30.35 in1027.8 mb 0.00 in0.0 mm 0.00 in0.0 mm 0.00 in0.0 mm
01:20 AM 23.2°F-4.9°C 18.8°F-7.3°C 83% 17.0 mph NW27.4 kmh NW -- 30.36 in1028.1 mb 0.00 in0.0 mm 0.00 in0.0 mm 0.00 in0.0 mm
01:25 AM 22.7°F-5.2°C 17.5°F-8.1°C 80% 14.0 mph WNW22.5 kmh WNW -- 30.36 in1028.1 mb 0.00 in0.0 mm 0.00 in0.0 mm 0.00 in0.0 mm
01:30 AM 22.3°F-5.4°C 16.5°F-8.6°C 78% 5.0 mph WNW8.0 kmh WNW 18.0 mph29.0 kmh 30.36 in1028.1 mb 0.00 in0.0 mm 0.00 in0.0 mm 0.00 in0.0 mm
01:35 AM 22.3°F-5.4°C 16.5°F-8.6°C 78% 8.0 mph NW12.9 kmh NW 18.0 mph29.0 kmh 30.36 in1028.1 mb 0.00 in0.0 mm 0.00 in0.0 mm 0.00 in0.0 mm
01:40 AM 22.2°F-5.4°C 16.4°F-8.7°C 78% 9.0 mph NW14.5 kmh NW -- 30.36 in1028.1 mb 0.00 in0.0 mm 0.00 in0.0 mm 0.00 in0.0 mm
01:45 AM 22.1°F-5.5°C 16.6°F-8.6°C 79% 7.0 mph NW11.3 kmh NW -- 30.36 in1028.1 mb 0.00 in0.0 mm 0.00 in0.0 mm 0.00 in0.0 mm
01:50 AM 22.1°F-5.5°C 16.6°F-8.6°C 79% 13.0 mph NW20.9 kmh NW -- 30.37 in1028.4 mb 0.00 in0.0 mm 0.00 in0.0 mm 0.00 in0.0 mm
01:55 AM 21.9°F-5.6°C 16.4°F-8.7°C 79% 6.0 mph W9.7 kmh W -- 30.37 in1028.4 mb 0.00 in0.0 mm 0.00 in0.0 mm 0.00 in0.0 mm
02:00 AM 21.8°F-5.7°C 16.6°F-8.6°C 80% 6.0 mph W9.7 kmh W -- 30.37 in1028.4 mb 0.00 in0.0 mm 0.00 in0.0 mm 0.00 in0.0 mm
02:05 AM 21.7°F-5.7°C 16.5°F-8.6°C 80% 9.0 mph NW14.5 kmh NW -- 30.38 in1028.8 mb 0.00 in0.0 mm 0.00 in0.0 mm 0.00 in0.0 mm
02:10 AM 21.6°F-5.8°C 16.4°F-8.7°C 80% 8.0 mph WNW12.9 kmh WNW -- 30.38 in1028.8 mb 0.00 in0.0 mm 0.00 in0.0 mm 0.00 in0.0 mm
02:15 AM 21.6°F-5.8°C 16.4°F-8.7°C 80% 9.0 mph NW14.5 kmh NW -- 30.38 in1028.8 mb 0.00 in0.0 mm 0.00 in0.0 mm 0.00 in0.0 mm
02:20 AM 21.6°F-5.8°C 16.4°F-8.7°C 80% 6.0 mph NW9.7 kmh NW 13.0 mph20.9 kmh 30.39 in1029.1 mb 0.00 in0.0 mm 0.00 in0.0 mm 0.00 in0.0 mm
02:25 AM 21.6°F-5.8°C 16.4°F-8.7°C 80% 8.0 mph NNW12.9 kmh NNW 13.0 mph20.9 kmh 30.40 in1029.5 mb 0.00 in0.0 mm 0.00 in0.0 mm 0.00 in0.0 mm
02:30 AM 21.5°F-5.8°C 16.3°F-8.7°C 80% 9.0 mph NW14.5 kmh NW -- 30.39 in1029.1 mb 0.00 in0.0 mm 0.00 in0.0 mm 0.00 in0.0 mm
02:35 AM 21.4°F-5.9°C 15.9°F-8.9°C 79% 13.0 mph NW20.9 kmh NW -- 30.40 in1029.5 mb 0.00 in0.0 mm 0.00 in0.0 mm 0.00 in0.0 mm
02:40 AM 21.4°F-5.9°C 16.2°F-8.8°C 80% 9.0 mph WNW14.5 kmh WNW -- 30.40 in1029.5 mb 0.00 in0.0 mm 0.00 in0.0 mm 0.00 in0.0 mm
02:45 AM 21.4°F-5.9°C 15.9°F-8.9°C 79% 7.0 mph NW11.3 kmh NW -- 30.41 in1029.8 mb 0.00 in0.0 mm 0.00 in0.0 mm 0.00 in0.0 mm
02:50 AM 21.2°F-6.0°C 15.4°F-9.2°C 78% 11.0 mph NW17.7 kmh NW -- 30.41 in1029.8 mb 0.00 in0.0 mm 0.00 in0.0 mm 0.00 in0.0 mm
02:55 AM 21.2°F-6.0°C 15.4°F-9.2°C 78% 8.0 mph WNW12.9 kmh WNW -- 30.41 in1029.8 mb 0.00 in0.0 mm 0.00 in0.0 mm 0.00 in0.0 mm
03:00 AM 21.2°F-6.0°C 15.4°F-9.2°C 78% 9.0 mph NW14.5 kmh NW -- 30.42 in1030.1 mb 0.00 in0.0 mm 0.00 in0.0 mm 0.00 in0.0 mm
03:05 AM 21.1°F-6.1°C 15.3°F-9.3°C 78% 7.0 mph NW11.3 kmh NW -- 30.43 in1030.5 mb 0.00 in0.0 mm 0.00 in0.0 mm 0.00 in0.0 mm
03:10 AM 21.0°F-6.1°C 14.9°F-9.5°C 77% 7.0 mph NW11.3 kmh NW 15.0 mph24.1 kmh 30.43 in1030.5 mb 0.00 in0.0 mm 0.00 in0.0 mm 0.00 in0.0 mm
03:15 AM 20.9°F-6.2°C 14.8°F-9.6°C 77% 6.0 mph NW9.7 kmh NW 15.0 mph24.1 kmh 30.43 in1030.5 mb 0.00 in0.0 mm 0.00 in0.0 mm 0.00 in0.0 mm
03:20 AM 20.9°F-6.2°C 15.1°F-9.4°C 78% 9.0 mph W14.5 kmh W -- 30.43 in1030.5 mb 0.00 in0.0 mm 0.00 in0.0 mm 0.00 in0.0 mm
03:25 AM 20.8°F-6.2°C 14.7°F-9.6°C 77% 6.0 mph NW9.7 kmh NW -- 30.43 in1030.5 mb 0.00 in0.0 mm 0.00 in0.0 mm 0.00 in0.0 mm
03:30 AM 20.8°F-6.2°C 14.7°F-9.6°C 77% 5.0 mph NW8.0 kmh NW -- 30.43 in1030.5 mb 0.00 in0.0 mm 0.00 in0.0 mm 0.00 in0.0 mm
03:35 AM 20.8°F-6.2°C 14.7°F-9.6°C 77% 5.0 mph NNW8.0 kmh NNW -- 30.44 in1030.8 mb 0.00 in0.0 mm 0.00 in0.0 mm 0.00 in0.0 mm
03:40 AM 20.8°F-6.2°C 14.7°F-9.6°C 77% 11.0 mph NW17.7 kmh NW -- 30.43 in1030.5 mb 0.00 in0.0 mm 0.00 in0.0 mm 0.00 in0.0 mm
03:45 AM 20.6°F-6.3°C 14.6°F-9.7°C 77% 10.0 mph NW16.1 kmh NW -- 30.44 in1030.8 mb 0.00 in0.0 mm 0.00 in0.0 mm 0.00 in0.0 mm
03:50 AM 20.6°F-6.3°C 14.6°F-9.7°C 77% 8.0 mph NW12.9 kmh NW -- 30.44 in1030.8 mb 0.00 in0.0 mm 0.00 in0.0 mm 0.00 in0.0 mm
03:55 AM 20.5°F-6.4°C 14.5°F-9.7°C 77% 11.0 mph NW17.7 kmh NW -- 30.44 in1030.8 mb 0.00 in0.0 mm 0.00 in0.0 mm 0.00 in0.0 mm
04:00 AM 20.5°F-6.4°C 14.5°F-9.7°C 77% 9.0 mph NW14.5 kmh NW 15.0 mph24.1 kmh 30.44 in1030.8 mb 0.00 in0.0 mm 0.00 in0.0 mm 0.00 in0.0 mm
04:05 AM 20.5°F-6.4°C 14.5°F-9.7°C 77% 3.0 mph NW4.8 kmh NW 15.0 mph24.1 kmh 30.45 in1031.2 mb 0.00 in0.0 mm 0.00 in0.0 mm 0.00 in0.0 mm
04:10 AM 20.4°F-6.4°C 14.7°F-9.6°C 78% 9.0 mph NW14.5 kmh NW -- 30.45 in1031.2 mb 0.00 in0.0 mm 0.00 in0.0 mm 0.00 in0.0 mm
04:15 AM 20.3°F-6.5°C 14.6°F-9.7°C 78% 5.0 mph NW8.0 kmh NW -- 30.45 in1031.2 mb 0.00 in0.0 mm 0.00 in0.0 mm 0.00 in0.0 mm
04:20 AM 20.1°F-6.6°C 14.1°F-9.9°C 77% 14.0 mph NW22.5 kmh NW -- 30.46 in1031.5 mb 0.00 in0.0 mm 0.00 in0.0 mm 0.00 in0.0 mm
04:25 AM 20.0°F-6.7°C 14.0°F-10.0°C 77% 6.0 mph N9.7 kmh N -- 30.46 in1031.5 mb 0.00 in0.0 mm 0.00 in0.0 mm 0.00 in0.0 mm
04:30 AM 20.0°F-6.7°C 14.0°F-10.0°C 77% 10.0 mph NW16.1 kmh NW -- 30.46 in1031.5 mb 0.00 in0.0 mm 0.00 in0.0 mm 0.00 in0.0 mm
04:35 AM 20.0°F-6.7°C 14.3°F-9.8°C 78% 7.0 mph NW11.3 kmh NW -- 30.46 in1031.5 mb 0.00 in0.0 mm 0.00 in0.0 mm 0.00 in0.0 mm
04:40 AM 19.9°F-6.7°C 14.2°F-9.9°C 78% 9.0 mph NW14.5 kmh NW -- 30.47 in1031.8 mb 0.00 in0.0 mm 0.00 in0.0 mm 0.00 in0.0 mm
04:45 AM 19.9°F-6.7°C 14.2°F-9.9°C 78% 9.0 mph NW14.5 kmh NW -- 30.47 in1031.8 mb 0.00 in0.0 mm 0.00 in0.0 mm 0.00 in0.0 mm
04:50 AM 19.8°F-6.8°C 14.4°F-9.8°C 79% 7.0 mph NW11.3 kmh NW 15.0 mph24.1 kmh 30.47 in1031.8 mb 0.00 in0.0 mm 0.00 in0.0 mm 0.00 in0.0 mm
04:55 AM 19.7°F-6.8°C 14.3°F-9.8°C 79% 7.0 mph NW11.3 kmh NW 15.0 mph24.1 kmh 30.47 in1031.8 mb 0.00 in0.0 mm 0.00 in0.0 mm 0.00 in0.0 mm
05:00 AM 19.7°F-6.8°C 14.3°F-9.8°C 79% 6.0 mph NW9.7 kmh NW -- 30.48 in1032.2 mb 0.00 in0.0 mm 0.00 in0.0 mm 0.00 in0.0 mm
05:05 AM 19.5°F-6.9°C 13.8°F-10.1°C 78% 8.0 mph WNW12.9 kmh WNW -- 30.48 in1032.2 mb 0.00 in0.0 mm 0.00 in0.0 mm 0.00 in0.0 mm
05:10 AM 19.5°F-6.9°C 14.1°F-9.9°C 79% 5.0 mph WNW8.0 kmh WNW -- 30.48 in1032.2 mb 0.00 in0.0 mm 0.00 in0.0 mm 0.00 in0.0 mm
05:15 AM 19.5°F-6.9°C 13.8°F-10.1°C 78% 11.0 mph NW17.7 kmh NW -- 30.48 in1032.2 mb 0.00 in0.0 mm 0.00 in0.0 mm 0.00 in0.0 mm
05:20 AM 19.3°F-7.1°C 13.6°F-10.2°C 78% 9.0 mph NW14.5 kmh NW -- 30.49 in1032.5 mb 0.00 in0.0 mm 0.00 in0.0 mm 0.00 in0.0 mm
05:25 AM 19.3°F-7.1°C 13.6°F-10.2°C 78% 11.0 mph WNW17.7 kmh WNW -- 30.50 in1032.8 mb 0.00 in0.0 mm 0.00 in0.0 mm 0.00 in0.0 mm
05:30 AM 19.3°F-7.1°C 13.9°F-10.1°C 79% 6.0 mph WNW9.7 kmh WNW -- 30.50 in1032.8 mb 0.00 in0.0 mm 0.00 in0.0 mm 0.00 in0.0 mm
05:35 AM 19.3°F-7.1°C 13.9°F-10.1°C 79% 3.0 mph WNW4.8 kmh WNW -- 30.50 in1032.8 mb 0.00 in0.0 mm 0.00 in0.0 mm 0.00 in0.0 mm
05:40 AM 19.2°F-7.1°C 14.1°F-9.9°C 80% 9.0 mph NW14.5 kmh NW 12.0 mph19.3 kmh 30.51 in1033.2 mb 0.00 in0.0 mm 0.00 in0.0 mm 0.00 in0.0 mm
05:45 AM 19.0°F-7.2°C 13.6°F-10.2°C 79% 5.0 mph N8.0 kmh N 12.0 mph19.3 kmh 30.52 in1033.5 mb 0.00 in0.0 mm 0.00 in0.0 mm 0.00 in0.0 mm
05:50 AM 18.9°F-7.3°C 13.5°F-10.3°C 79% 10.0 mph NW16.1 kmh NW -- 30.52 in1033.5 mb 0.00 in0.0 mm 0.00 in0.0 mm 0.00 in0.0 mm
05:55 AM 18.9°F-7.3°C 13.2°F-10.4°C 78% 5.0 mph NW8.0 kmh NW -- 30.52 in1033.5 mb 0.00 in0.0 mm 0.00 in0.0 mm 0.00 in0.0 mm
06:00 AM 18.8°F-7.3°C 13.4°F-10.3°C 79% 5.0 mph NW8.0 kmh NW -- 30.52 in1033.5 mb 0.00 in0.0 mm 0.00 in0.0 mm 0.00 in0.0 mm
06:05 AM 18.8°F-7.3°C 13.4°F-10.3°C 79% 3.0 mph W4.8 kmh W -- 30.53 in1033.9 mb 0.00 in0.0 mm 0.00 in0.0 mm 0.00 in0.0 mm
06:10 AM 18.7°F-7.4°C 13.3°F-10.4°C 79% 5.0 mph NW8.0 kmh NW -- 30.53 in1033.9 mb 0.00 in0.0 mm 0.00 in0.0 mm 0.00 in0.0 mm
06:15 AM 18.6°F-7.4°C 13.2°F-10.4°C 79% 8.0 mph NW12.9 kmh NW -- 30.53 in1033.9 mb 0.00 in0.0 mm 0.00 in0.0 mm 0.00 in0.0 mm
06:20 AM 18.5°F-7.5°C 13.1°F-10.5°C 79% 7.0 mph NW11.3 kmh NW -- 30.54 in1034.2 mb 0.00 in0.0 mm 0.00 in0.0 mm 0.00 in0.0 mm
06:25 AM 18.4°F-7.6°C 13.0°F-10.6°C 79% 9.0 mph NW14.5 kmh NW -- 30.54 in1034.2 mb 0.00 in0.0 mm 0.00 in0.0 mm 0.00 in0.0 mm
06:30 AM 18.3°F-7.6°C 12.9°F-10.6°C 79% 5.0 mph NW8.0 kmh NW 11.0 mph17.7 kmh 30.54 in1034.2 mb 0.00 in0.0 mm 0.00 in0.0 mm 0.00 in0.0 mm
06:35 AM 18.3°F-7.6°C 12.9°F-10.6°C 79% 6.0 mph WNW9.7 kmh WNW 11.0 mph17.7 kmh 30.55 in1034.5 mb 0.00 in0.0 mm 0.00 in0.0 mm 0.00 in0.0 mm
06:40 AM 18.2°F-7.7°C 13.1°F-10.5°C 80% 4.0 mph NW6.4 kmh NW -- 30.55 in1034.5 mb 0.00 in0.0 mm 0.00 in0.0 mm 0.00 in0.0 mm
06:45 AM 18.3°F-7.6°C 13.2°F-10.4°C 80% 2.0 mph NW3.2 kmh NW -- 30.55 in1034.5 mb 0.00 in0.0 mm 0.00 in0.0 mm 0.00 in0.0 mm
06:50 AM 18.3°F-7.6°C 13.2°F-10.4°C 80% 3.0 mph WNW4.8 kmh WNW -- 30.56 in1034.9 mb 0.00 in0.0 mm 0.00 in0.0 mm 0.00 in0.0 mm
06:55 AM 18.3°F-7.6°C 13.2°F-10.4°C 80% 4.0 mph W6.4 kmh W -- 30.56 in1034.9 mb 0.00 in0.0 mm 0.00 in0.0 mm 0.00 in0.0 mm
07:00 AM 18.2°F-7.7°C 13.1°F-10.5°C 80% 8.0 mph WNW12.9 kmh WNW -- 30.56 in1034.9 mb 0.00 in0.0 mm 0.00 in0.0 mm 0.00 in0.0 mm
07:05 AM 18.2°F-7.7°C 13.1°F-10.5°C 80% 8.0 mph WNW12.9 kmh WNW -- 30.57 in1035.2 mb 0.00 in0.0 mm 0.00 in0.0 mm 0.00 in0.0 mm
07:10 AM 18.1°F-7.7°C 13.0°F-10.6°C 80% 7.0 mph WNW11.3 kmh WNW -- 30.57 in1035.2 mb 0.00 in0.0 mm 0.00 in0.0 mm 0.00 in0.0 mm
07:15 AM 18.1°F-7.7°C 13.0°F-10.6°C 80% 5.0 mph WNW8.0 kmh WNW -- 30.57 in1035.2 mb 0.00 in0.0 mm 0.00 in0.0 mm 0.00 in0.0 mm
07:20 AM 18.1°F-7.7°C 13.0°F-10.6°C 80% 4.0 mph WNW6.4 kmh WNW 13.0 mph20.9 kmh 30.57 in1035.2 mb 0.00 in0.0 mm 0.00 in0.0 mm 0.00 in0.0 mm
07:25 AM 18.0°F-7.8°C 12.9°F-10.6°C 80% 2.0 mph WNW3.2 kmh WNW 13.0 mph20.9 kmh 30.57 in1035.2 mb 0.00 in0.0 mm 0.00 in0.0 mm 0.00 in0.0 mm
07:30 AM 18.0°F-7.8°C 13.2°F-10.4°C 81% 4.0 mph W6.4 kmh W -- 30.58 in1035.6 mb 0.00 in0.0 mm 0.00 in0.0 mm 0.00 in0.0 mm
07:35 AM 17.9°F-7.8°C 13.1°F-10.5°C 81% 6.0 mph NW9.7 kmh NW -- 30.58 in1035.6 mb 0.00 in0.0 mm 0.00 in0.0 mm 0.00 in0.0 mm
07:40 AM 17.7°F-7.9°C 12.9°F-10.6°C 81% 5.0 mph NW8.0 kmh NW -- 30.59 in1035.9 mb 0.00 in0.0 mm 0.00 in0.0 mm 0.00 in0.0 mm
07:45 AM 17.5°F-8.1°C 12.7°F-10.7°C 81% 8.0 mph NW12.9 kmh NW -- 30.59 in1035.9 mb 0.00 in0.0 mm 0.00 in0.0 mm 0.00 in0.0 mm
07:50 AM 17.4°F-8.1°C 12.6°F-10.8°C 81% 7.0 mph NW11.3 kmh NW -- 30.59 in1035.9 mb 0.00 in0.0 mm 0.00 in0.0 mm 0.00 in0.0 mm
07:55 AM 17.3°F-8.2°C 12.5°F-10.8°C 81% 4.0 mph NW6.4 kmh NW -- 30.59 in1035.9 mb 0.00 in0.0 mm 0.00 in0.0 mm 0.00 in0.0 mm
08:00 AM 17.2°F-8.2°C 12.4°F-10.9°C 81% 5.0 mph NW8.0 kmh NW -- 30.59 in1035.9 mb 0.00 in0.0 mm 0.00 in0.0 mm 0.00 in0.0 mm
08:05 AM 17.1°F-8.3°C 12.3°F-10.9°C 81% 5.0 mph W8.0 kmh W -- 30.59 in1035.9 mb 0.00 in0.0 mm 0.00 in0.0 mm 0.00 in0.0 mm
08:10 AM 17.0°F-8.3°C 12.2°F-11.0°C 81% 5.0 mph WNW8.0 kmh WNW 11.0 mph17.7 kmh 30.60 in1036.2 mb 0.00 in0.0 mm 0.00 in0.0 mm 0.00 in0.0 mm
08:15 AM 16.9°F-8.4°C 12.4°F-10.9°C 82% 10.0 mph NW16.1 kmh NW 11.0 mph17.7 kmh 30.60 in1036.2 mb 0.00 in0.0 mm 0.00 in0.0 mm 0.00 in0.0 mm
08:20 AM 16.8°F-8.4°C 12.0°F-11.1°C 81% 5.0 mph WNW8.0 kmh WNW -- 30.60 in1036.2 mb 0.00 in0.0 mm 0.00 in0.0 mm 0.00 in0.0 mm
08:25 AM 16.8°F-8.4°C 12.0°F-11.1°C 81% 13.0 mph NW20.9 kmh NW -- 30.61 in1036.6 mb 0.00 in0.0 mm 0.00 in0.0 mm 0.00 in0.0 mm
08:30 AM 16.8°F-8.4°C 12.0°F-11.1°C 81% 8.0 mph NW12.9 kmh NW -- 30.61 in1036.6 mb 0.00 in0.0 mm 0.00 in0.0 mm 0.00 in0.0 mm
08:35 AM 16.8°F-8.4°C 12.0°F-11.1°C 81% 4.0 mph WNW6.4 kmh WNW -- 30.62 in1036.9 mb 0.00 in0.0 mm 0.00 in0.0 mm 0.00 in0.0 mm
08:40 AM 16.8°F-8.4°C 12.0°F-11.1°C 81% 5.0 mph WNW8.0 kmh WNW -- 30.62 in1036.9 mb 0.00 in0.0 mm 0.00 in0.0 mm 0.00 in0.0 mm
08:45 AM 16.8°F-8.4°C 12.0°F-11.1°C 81% 7.0 mph NW11.3 kmh NW -- 30.62 in1036.9 mb 0.00 in0.0 mm 0.00 in0.0 mm 0.00 in0.0 mm
08:50 AM 16.8°F-8.4°C 12.0°F-11.1°C 81% 8.0 mph WNW12.9 kmh WNW -- 30.62 in1036.9 mb 0.00 in0.0 mm 0.00 in0.0 mm 0.00 in0.0 mm
08:55 AM 16.8°F-8.4°C 12.3°F-10.9°C 82% 4.0 mph NW6.4 kmh NW -- 30.63 in1037.3 mb 0.00 in0.0 mm 0.00 in0.0 mm 0.00 in0.0 mm
09:00 AM 16.9°F-8.4°C 12.4°F-10.9°C 82% 6.0 mph WNW9.7 kmh WNW 10.0 mph16.1 kmh 30.63 in1037.3 mb 0.00 in0.0 mm 0.00 in0.0 mm 0.00 in0.0 mm
09:05 AM 16.8°F-8.4°C 12.3°F-10.9°C 82% 6.0 mph NW9.7 kmh NW 10.0 mph16.1 kmh 30.64 in1037.6 mb 0.00 in0.0 mm 0.00 in0.0 mm 0.00 in0.0 mm
09:10 AM 16.7°F-8.5°C 11.9°F-11.2°C 81% 5.0 mph WNW8.0 kmh WNW -- 30.65 in1037.9 mb 0.00 in0.0 mm 0.00 in0.0 mm 0.00 in0.0 mm
09:15 AM 16.7°F-8.5°C 12.2°F-11.0°C 82% 3.0 mph WNW4.8 kmh WNW -- 30.65 in1037.9 mb 0.00 in0.0 mm 0.00 in0.0 mm 0.00 in0.0 mm
09:20 AM 16.8°F-8.4°C 12.3°F-10.9°C 82% 4.0 mph WNW6.4 kmh WNW -- 30.66 in1038.3 mb 0.00 in0.0 mm 0.00 in0.0 mm 0.00 in0.0 mm
09:25 AM 17.1°F-8.3°C 12.3°F-10.9°C 81% 6.0 mph NW9.7 kmh NW -- 30.66 in1038.3 mb 0.00 in0.0 mm 0.00 in0.0 mm 0.00 in0.0 mm
09:30 AM 17.1°F-8.3°C 12.3°F-10.9°C 81% 7.0 mph WSW11.3 kmh WSW -- 30.67 in1038.6 mb 0.00 in0.0 mm 0.00 in0.0 mm 0.00 in0.0 mm
09:35 AM 16.7°F-8.5°C 11.9°F-11.2°C 81% 5.0 mph NW8.0 kmh NW -- 30.67 in1038.6 mb 0.00 in0.0 mm 0.00 in0.0 mm 0.00 in0.0 mm
09:40 AM 16.8°F-8.4°C 12.0°F-11.1°C 81% 3.0 mph W4.8 kmh W -- 30.67 in1038.6 mb 0.00 in0.0 mm 0.00 in0.0 mm 0.00 in0.0 mm
09:45 AM 16.6°F-8.6°C 11.5°F-11.4°C 80% 2.0 mph NW3.2 kmh NW -- 30.67 in1038.6 mb 0.00 in0.0 mm 0.00 in0.0 mm 0.00 in0.0 mm
09:50 AM 16.8°F-8.4°C 11.7°F-11.3°C 80% 8.0 mph NW12.9 kmh NW 13.0 mph20.9 kmh 30.67 in1038.6 mb 0.00 in0.0 mm 0.00 in0.0 mm 0.00 in0.0 mm
09:55 AM 16.9°F-8.4°C 11.5°F-11.4°C 79% 9.0 mph NW14.5 kmh NW 13.0 mph20.9 kmh 30.67 in1038.6 mb 0.00 in0.0 mm 0.00 in0.0 mm 0.00 in0.0 mm
10:00 AM 16.7°F-8.5°C 11.1°F-11.6°C 78% 8.0 mph NW12.9 kmh NW -- 30.68 in1038.9 mb 0.00 in0.0 mm 0.00 in0.0 mm 0.00 in0.0 mm
10:05 AM 16.5°F-8.6°C 10.9°F-11.7°C 78% 8.0 mph NW12.9 kmh NW -- 30.68 in1038.9 mb 0.00 in0.0 mm 0.00 in0.0 mm 0.00 in0.0 mm
10:10 AM 16.4°F-8.7°C 10.8°F-11.8°C 78% 6.0 mph W9.7 kmh W -- 30.68 in1038.9 mb 0.00 in0.0 mm 0.00 in0.0 mm 0.00 in0.0 mm
10:15 AM 16.7°F-8.5°C 11.1°F-11.6°C 78% 6.0 mph NNW9.7 kmh NNW -- 30.68 in1038.9 mb 0.00 in0.0 mm 0.00 in0.0 mm 0.00 in0.0 mm
10:20 AM 16.9°F-8.4°C 11.0°F-11.7°C 77% 9.0 mph NW14.5 kmh NW -- 30.68 in1038.9 mb 0.00 in0.0 mm 0.00 in0.0 mm 0.00 in0.0 mm
10:25 AM 16.8°F-8.4°C 10.9°F-11.7°C 77% 4.0 mph NNW6.4 kmh NNW -- 30.68 in1038.9 mb 0.00 in0.0 mm 0.00 in0.0 mm 0.00 in0.0 mm
10:30 AM 17.1°F-8.3°C 11.2°F-11.6°C 77% 7.0 mph NW11.3 kmh NW -- 30.69 in1039.3 mb 0.00 in0.0 mm 0.00 in0.0 mm 0.00 in0.0 mm
10:35 AM 17.2°F-8.2°C 11.0°F-11.7°C 76% 6.0 mph WNW9.7 kmh WNW -- 30.69 in1039.3 mb 0.00 in0.0 mm 0.00 in0.0 mm 0.00 in0.0 mm
10:40 AM 17.1°F-8.3°C 10.6°F-11.9°C 75% 9.0 mph WNW14.5 kmh WNW 16.0 mph25.7 kmh 30.69 in1039.3 mb 0.00 in0.0 mm 0.00 in0.0 mm 0.00 in0.0 mm
10:45 AM 17.2°F-8.2°C 11.0°F-11.7°C 76% 6.0 mph W9.7 kmh W 16.0 mph25.7 kmh 30.69 in1039.3 mb 0.00 in0.0 mm 0.00 in0.0 mm 0.00 in0.0 mm
10:50 AM 17.4°F-8.1°C 11.2°F-11.6°C 76% 7.0 mph NW11.3 kmh NW -- 30.70 in1039.6 mb 0.00 in0.0 mm 0.00 in0.0 mm 0.00 in0.0 mm
10:55 AM 17.6°F-8.0°C 11.3°F-11.5°C 76% 5.0 mph NW8.0 kmh NW -- 30.70 in1039.6 mb 0.00 in0.0 mm 0.00 in0.0 mm 0.00 in0.0 mm
11:00 AM 17.9°F-7.8°C 11.6°F-11.3°C 76% 4.0 mph W6.4 kmh W -- 30.70 in1039.6 mb 0.00 in0.0 mm 0.00 in0.0 mm 0.00 in0.0 mm
11:05 AM 17.9°F-7.8°C 11.6°F-11.3°C 76% 4.0 mph NW6.4 kmh NW -- 30.71 in1040.0 mb 0.00 in0.0 mm 0.00 in0.0 mm 0.00 in0.0 mm
11:10 AM 17.7°F-7.9°C 11.1°F-11.6°C 75% 10.0 mph NW16.1 kmh NW -- 30.71 in1040.0 mb 0.00 in0.0 mm 0.00 in0.0 mm 0.00 in0.0 mm
11:15 AM 17.6°F-8.0°C 10.7°F-11.8°C 74% 8.0 mph NW12.9 kmh NW -- 30.71 in1040.0 mb 0.00 in0.0 mm 0.00 in0.0 mm 0.00 in0.0 mm
11:20 AM 17.6°F-8.0°C 10.7°F-11.8°C 74% 6.0 mph NNW9.7 kmh NNW -- 30.71 in1040.0 mb 0.00 in0.0 mm 0.00 in0.0 mm 0.00 in0.0 mm
11:25 AM 17.5°F-8.1°C 10.7°F-11.8°C 74% 8.0 mph NW12.9 kmh NW -- 30.71 in1040.0 mb 0.00 in0.0 mm 0.00 in0.0 mm 0.00 in0.0 mm
11:30 AM 17.7°F-7.9°C 10.8°F-11.8°C 74% 6.0 mph NW9.7 kmh NW 10.0 mph16.1 kmh 30.71 in1040.0 mb 0.00 in0.0 mm 0.00 in0.0 mm 0.00 in0.0 mm
11:35 AM 18.1°F-7.7°C 11.2°F-11.6°C 74% 5.0 mph NW8.0 kmh NW 10.0 mph16.1 kmh 30.71 in1040.0 mb 0.00 in0.0 mm 0.00 in0.0 mm 0.00 in0.0 mm
11:40 AM 18.2°F-7.7°C 11.0°F-11.7°C 73% 3.0 mph NW4.8 kmh NW -- 30.71 in1040.0 mb 0.00 in0.0 mm 0.00 in0.0 mm 0.00 in0.0 mm
11:45 AM 18.4°F-7.6°C 11.2°F-11.6°C 73% 1.0 mph W1.6 kmh W -- 30.72 in1040.3 mb 0.00 in0.0 mm 0.00 in0.0 mm 0.00 in0.0 mm
11:50 AM 18.6°F-7.4°C 11.4°F-11.4°C 73% 4.0 mph WNW6.4 kmh WNW -- 30.72 in1040.3 mb 0.00 in0.0 mm 0.00 in0.0 mm 0.00 in0.0 mm
11:55 AM 18.8°F-7.3°C 11.3°F-11.5°C 72% 6.0 mph WNW9.7 kmh WNW -- 30.72 in1040.3 mb 0.00 in0.0 mm 0.00 in0.0 mm 0.00 in0.0 mm
12:00 PM 18.8°F-7.3°C 11.0°F-11.7°C 71% 6.0 mph NW9.7 kmh NW -- 30.72 in1040.3 mb 0.00 in0.0 mm 0.00 in0.0 mm 0.00 in0.0 mm
12:05 PM 18.9°F-7.3°C 11.1°F-11.6°C 71% 6.0 mph W9.7 kmh W -- 30.72 in1040.3 mb 0.00 in0.0 mm 0.00 in0.0 mm 0.00 in0.0 mm
12:10 PM 19.4°F-7.0°C 11.6°F-11.3°C 71% 4.0 mph W6.4 kmh W -- 30.72 in1040.3 mb 0.00 in0.0 mm 0.00 in0.0 mm 0.00 in0.0 mm
12:15 PM 19.4°F-7.0°C 13.1°F-10.5°C 76% 3.0 mph WNW4.8 kmh WNW -- 30.72 in1040.3 mb 0.00 in0.0 mm 0.00 in0.0 mm 0.00 in0.0 mm
12:20 PM 19.5°F-6.9°C 11.0°F-11.7°C 69% 6.0 mph W9.7 kmh W 10.0 mph16.1 kmh 30.72 in1040.3 mb 0.00 in0.0 mm 0.00 in0.0 mm 0.00 in0.0 mm
12:25 PM 19.4°F-7.0°C 10.9°F-11.7°C 69% 5.0 mph NW8.0 kmh NW 10.0 mph16.1 kmh 30.72 in1040.3 mb 0.00 in0.0 mm 0.00 in0.0 mm 0.00 in0.0 mm
12:30 PM 19.5°F-6.9°C 10.7°F-11.8°C 68% 6.0 mph NNW9.7 kmh NNW -- 30.72 in1040.3 mb 0.00 in0.0 mm 0.00 in0.0 mm 0.00 in0.0 mm
12:35 PM 19.8°F-6.8°C 11.0°F-11.7°C 68% 10.0 mph W16.1 kmh W -- 30.71 in1040.0 mb 0.00 in0.0 mm 0.00 in0.0 mm 0.00 in0.0 mm
12:40 PM 19.8°F-6.8°C 10.6°F-11.9°C 67% 6.0 mph WNW9.7 kmh WNW -- 30.72 in1040.3 mb 0.00 in0.0 mm 0.00 in0.0 mm 0.00 in0.0 mm
12:45 PM 20.0°F-6.7°C 10.8°F-11.8°C 67% 4.0 mph NW6.4 kmh NW -- 30.71 in1040.0 mb 0.00 in0.0 mm 0.00 in0.0 mm 0.00 in0.0 mm
12:50 PM 20.2°F-6.6°C 10.3°F-12.1°C 65% 5.0 mph WNW8.0 kmh WNW -- 30.71 in1040.0 mb 0.00 in0.0 mm 0.00 in0.0 mm 0.00 in0.0 mm
12:55 PM 20.4°F-6.4°C 10.5°F-11.9°C 65% 10.0 mph W16.1 kmh W -- 30.71 in1040.0 mb 0.00 in0.0 mm 0.00 in0.0 mm 0.00 in0.0 mm
01:00 PM 20.4°F-6.4°C 10.5°F-11.9°C 65% 5.0 mph W8.0 kmh W -- 30.71 in1040.0 mb 0.00 in0.0 mm 0.00 in0.0 mm 0.00 in0.0 mm
01:05 PM 20.7°F-6.3°C 11.2°F-11.6°C 66% 9.0 mph WNW14.5 kmh WNW -- 30.71 in1040.0 mb 0.00 in0.0 mm 0.00 in0.0 mm 0.00 in0.0 mm
01:10 PM 20.8°F-6.2°C 10.9°F-11.7°C 65% 4.0 mph WSW6.4 kmh WSW 12.0 mph19.3 kmh 30.72 in1040.3 mb 0.00 in0.0 mm 0.00 in0.0 mm 0.00 in0.0 mm
01:15 PM 20.7°F-6.3°C 10.5°F-11.9°C 64% 6.0 mph NNW9.7 kmh NNW 12.0 mph19.3 kmh 30.71 in1040.0 mb 0.00 in0.0 mm 0.00 in0.0 mm 0.00 in0.0 mm
01:20 PM 21.1°F-6.1°C 10.9°F-11.7°C 64% 7.0 mph NW11.3 kmh NW -- 30.71 in1040.0 mb 0.00 in0.0 mm 0.00 in0.0 mm 0.00 in0.0 mm
01:25 PM 20.9°F-6.2°C 11.0°F-11.7°C 65% 6.0 mph NW9.7 kmh NW -- 30.71 in1040.0 mb 0.00 in0.0 mm 0.00 in0.0 mm 0.00 in0.0 mm
01:30 PM 21.3°F-5.9°C 11.7°F-11.3°C 66% 8.0 mph NW12.9 kmh NW -- 30.71 in1040.0 mb 0.00 in0.0 mm 0.00 in0.0 mm 0.00 in0.0 mm
01:35 PM 21.6°F-5.8°C 11.3°F-11.5°C 64% 5.0 mph NW8.0 kmh NW -- 30.71 in1040.0 mb 0.00 in0.0 mm 0.00 in0.0 mm 0.00 in0.0 mm
01:40 PM 21.8°F-5.7°C 11.5°F-11.4°C 64% 5.0 mph SW8.0 kmh SW -- 30.71 in1040.0 mb 0.00 in0.0 mm 0.00 in0.0 mm 0.00 in0.0 mm
01:45 PM 22.0°F-5.6°C 11.4°F-11.4°C 63% 8.0 mph NW12.9 kmh NW -- 30.71 in1040.0 mb 0.00 in0.0 mm 0.00 in0.0 mm 0.00 in0.0 mm
01:50 PM 22.1°F-5.5°C 11.1°F-11.6°C 62% 5.0 mph NNW8.0 kmh NNW -- 30.71 in1040.0 mb 0.00 in0.0 mm 0.00 in0.0 mm 0.00 in0.0 mm
01:55 PM 22.1°F-5.5°C 10.7°F-11.8°C 61% 5.0 mph WNW8.0 kmh WNW -- 30.72 in1040.3 mb 0.00 in0.0 mm 0.00 in0.0 mm 0.00 in0.0 mm
02:00 PM 22.1°F-5.5°C 10.7°F-11.8°C 61% 10.0 mph NW16.1 kmh NW 11.0 mph17.7 kmh 30.71 in1040.0 mb 0.00 in0.0 mm 0.00 in0.0 mm 0.00 in0.0 mm
02:05 PM 22.2°F-5.4°C 10.8°F-11.8°C 61% 4.0 mph NW6.4 kmh NW 11.0 mph17.7 kmh 30.72 in1040.3 mb 0.00 in0.0 mm 0.00 in0.0 mm 0.00 in0.0 mm
02:10 PM 22.4°F-5.3°C 10.3°F-12.1°C 59% 3.0 mph W4.8 kmh W -- 30.72 in1040.3 mb 0.00 in0.0 mm 0.00 in0.0 mm 0.00 in0.0 mm
02:15 PM 22.7°F-5.2°C 10.9°F-11.7°C 60% 4.0 mph NW6.4 kmh NW -- 30.72 in1040.3 mb 0.00 in0.0 mm 0.00 in0.0 mm 0.00 in0.0 mm
02:20 PM 22.7°F-5.2°C 10.6°F-11.9°C 59% 6.0 mph WSW9.7 kmh WSW -- 30.72 in1040.3 mb 0.00 in0.0 mm 0.00 in0.0 mm 0.00 in0.0 mm
02:25 PM 23.1°F-4.9°C 11.3°F-11.5°C 60% 6.0 mph N9.7 kmh N -- 30.72 in1040.3 mb 0.00 in0.0 mm 0.00 in0.0 mm 0.00 in0.0 mm
02:30 PM 23.2°F-4.9°C 11.0°F-11.7°C 59% 7.0 mph NW11.3 kmh NW -- 30.72 in1040.3 mb 0.00 in0.0 mm 0.00 in0.0 mm 0.00 in0.0 mm
02:35 PM 23.1°F-4.9°C 10.5°F-11.9°C 58% 7.0 mph WNW11.3 kmh WNW -- 30.72 in1040.3 mb 0.00 in0.0 mm 0.00 in0.0 mm 0.00 in0.0 mm
02:40 PM 23.1°F-4.9°C 10.2°F-12.1°C 57% 6.0 mph W9.7 kmh W -- 30.72 in1040.3 mb 0.00 in0.0 mm 0.00 in0.0 mm 0.00 in0.0 mm
02:45 PM 23.1°F-4.9°C 10.2°F-12.1°C 57% 3.0 mph W4.8 kmh W -- 30.72 in1040.3 mb 0.00 in0.0 mm 0.00 in0.0 mm 0.00 in0.0 mm
02:50 PM 23.3°F-4.8°C 10.3°F-12.1°C 57% 4.0 mph WNW6.4 kmh WNW 9.0 mph14.5 kmh 30.72 in1040.3 mb 0.00 in0.0 mm 0.00 in0.0 mm 0.00 in0.0 mm
02:55 PM 23.6°F-4.7°C 11.0°F-11.7°C 58% 6.0 mph NW9.7 kmh NW 9.0 mph14.5 kmh 30.72 in1040.3 mb 0.00 in0.0 mm 0.00 in0.0 mm 0.00 in0.0 mm
03:00 PM 23.7°F-4.6°C 10.7°F-11.8°C 57% 3.0 mph WNW4.8 kmh WNW -- 30.72 in1040.3 mb 0.00 in0.0 mm 0.00 in0.0 mm 0.00 in0.0 mm
03:05 PM 23.6°F-4.7°C 10.6°F-11.9°C 57% 4.0 mph NNW6.4 kmh NNW -- 30.72 in1040.3 mb 0.00 in0.0 mm 0.00 in0.0 mm 0.00 in0.0 mm
03:10 PM 23.8°F-4.6°C 11.2°F-11.6°C 58% 3.0 mph W4.8 kmh W -- 30.72 in1040.3 mb 0.00 in0.0 mm 0.00 in0.0 mm 0.00 in0.0 mm
03:15 PM 24.1°F-4.4°C 11.5°F-11.4°C 58% 5.0 mph W8.0 kmh W -- 30.73 in1040.6 mb 0.00 in0.0 mm 0.00 in0.0 mm 0.00 in0.0 mm
03:20 PM 24.1°F-4.4°C 10.7°F-11.8°C 56% 3.0 mph NW4.8 kmh NW -- 30.72 in1040.3 mb 0.00 in0.0 mm 0.00 in0.0 mm 0.00 in0.0 mm
03:25 PM 24.3°F-4.3°C 11.7°F-11.3°C 58% 6.0 mph NW9.7 kmh NW -- 30.73 in1040.6 mb 0.00 in0.0 mm 0.00 in0.0 mm 0.00 in0.0 mm
03:30 PM 24.2°F-4.3°C 11.2°F-11.6°C 57% 4.0 mph NNW6.4 kmh NNW -- 30.73 in1040.6 mb 0.00 in0.0 mm 0.00 in0.0 mm 0.00 in0.0 mm
03:35 PM 24.3°F-4.3°C 10.5°F-11.9°C 55% Calm Calm -- 30.73 in1040.6 mb 0.00 in0.0 mm 0.00 in0.0 mm 0.00 in0.0 mm
03:40 PM 24.5°F-4.2°C 11.1°F-11.6°C 56% 5.0 mph NW8.0 kmh NW 6.0 mph9.7 kmh 30.73 in1040.6 mb 0.00 in0.0 mm 0.00 in0.0 mm 0.00 in0.0 mm
03:45 PM 24.6°F-4.1°C 10.8°F-11.8°C 55% 3.0 mph NW4.8 kmh NW 6.0 mph9.7 kmh 30.73 in1040.6 mb 0.00 in0.0 mm 0.00 in0.0 mm 0.00 in0.0 mm
03:50 PM 24.7°F-4.1°C 11.7°F-11.3°C 57% 6.0 mph WNW9.7 kmh WNW -- 30.73 in1040.6 mb 0.00 in0.0 mm 0.00 in0.0 mm 0.00 in0.0 mm
03:55 PM 24.6°F-4.1°C 11.2°F-11.6°C 56% 4.0 mph NW6.4 kmh NW -- 30.73 in1040.6 mb 0.00 in0.0 mm 0.00 in0.0 mm 0.00 in0.0 mm
04:00 PM 24.7°F-4.1°C 10.9°F-11.7°C 55% 3.0 mph WNW4.8 kmh WNW -- 30.73 in1040.6 mb 0.00 in0.0 mm 0.00 in0.0 mm 0.00 in0.0 mm
04:05 PM 24.8°F-4.0°C 11.0°F-11.7°C 55% 4.0 mph NW6.4 kmh NW -- 30.73 in1040.6 mb 0.00 in0.0 mm 0.00 in0.0 mm 0.00 in0.0 mm
04:10 PM 24.7°F-4.1°C 10.4°F-12.0°C 54% 3.0 mph NW4.8 kmh NW -- 30.73 in1040.6 mb 0.00 in0.0 mm 0.00 in0.0 mm 0.00 in0.0 mm
04:15 PM 24.8°F-4.0°C 10.1°F-12.2°C 53% 3.0 mph NW4.8 kmh NW -- 30.73 in1040.6 mb 0.00 in0.0 mm 0.00 in0.0 mm 0.00 in0.0 mm
04:20 PM 24.9°F-3.9°C 9.8°F-12.3°C 52% 1.0 mph NW1.6 kmh NW -- 30.74 in1041.0 mb 0.00 in0.0 mm 0.00 in0.0 mm 0.00 in0.0 mm
04:25 PM 25.0°F-3.9°C 10.7°F-11.8°C 54% 5.0 mph NW8.0 kmh NW -- 30.73 in1040.6 mb 0.00 in0.0 mm 0.00 in0.0 mm 0.00 in0.0 mm
04:30 PM 25.0°F-3.9°C 10.3°F-12.1°C 53% 3.0 mph NW4.8 kmh NW 6.0 mph9.7 kmh 30.73 in1040.6 mb 0.00 in0.0 mm 0.00 in0.0 mm 0.00 in0.0 mm
04:35 PM 25.1°F-3.8°C 10.8°F-11.8°C 54% 2.0 mph N3.2 kmh N 6.0 mph9.7 kmh 30.73 in1040.6 mb 0.00 in0.0 mm 0.00 in0.0 mm 0.00 in0.0 mm
04:40 PM 25.3°F-3.7°C 11.0°F-11.7°C 54% 2.0 mph N3.2 kmh N -- 30.73 in1040.6 mb 0.00 in0.0 mm 0.00 in0.0 mm 0.00 in0.0 mm
04:45 PM 25.6°F-3.6°C 10.9°F-11.7°C 53% Calm Calm -- 30.73 in1040.6 mb 0.00 in0.0 mm 0.00 in0.0 mm 0.00 in0.0 mm
04:50 PM 25.4°F-3.7°C 10.3°F-12.1°C 52% 4.0 mph N6.4 kmh N -- 30.73 in1040.6 mb 0.00 in0.0 mm 0.00 in0.0 mm 0.00 in0.0 mm
04:55 PM 25.3°F-3.7°C 11.0°F-11.7°C 54% 2.0 mph NW3.2 kmh NW -- 30.73 in1040.6 mb 0.00 in0.0 mm 0.00 in0.0 mm 0.00 in0.0 mm
05:00 PM 25.2°F-3.8°C 10.9°F-11.7°C 54% 3.0 mph WNW4.8 kmh WNW -- 30.73 in1040.6 mb 0.00 in0.0 mm 0.00 in0.0 mm 0.00 in0.0 mm
05:05 PM 25.1°F-3.8°C 10.8°F-11.8°C 54% 4.0 mph N6.4 kmh N -- 30.73 in1040.6 mb 0.00 in0.0 mm 0.00 in0.0 mm 0.00 in0.0 mm
05:10 PM 25.2°F-3.8°C 10.9°F-11.7°C 54% 4.0 mph NW6.4 kmh NW -- 30.73 in1040.6 mb 0.00 in0.0 mm 0.00 in0.0 mm 0.00 in0.0 mm
05:15 PM 25.1°F-3.8°C 10.8°F-11.8°C 54% 3.0 mph NW4.8 kmh NW -- 30.73 in1040.6 mb 0.00 in0.0 mm 0.00 in0.0 mm 0.00 in0.0 mm
05:20 PM 25.2°F-3.8°C 10.9°F-11.7°C 54% 2.0 mph W3.2 kmh W 5.0 mph8.0 kmh 30.74 in1041.0 mb 0.00 in0.0 mm 0.00 in0.0 mm 0.00 in0.0 mm
05:25 PM 25.2°F-3.8°C 10.9°F-11.7°C 54% 1.0 mph W1.6 kmh W 5.0 mph8.0 kmh 30.74 in1041.0 mb 0.00 in0.0 mm 0.00 in0.0 mm 0.00 in0.0 mm
05:30 PM 25.4°F-3.7°C 11.1°F-11.6°C 54% 4.0 mph WNW6.4 kmh WNW -- 30.74 in1041.0 mb 0.00 in0.0 mm 0.00 in0.0 mm 0.00 in0.0 mm
05:35 PM 25.5°F-3.6°C 11.2°F-11.6°C 54% 5.0 mph NW8.0 kmh NW -- 30.75 in1041.3 mb 0.00 in0.0 mm 0.00 in0.0 mm 0.00 in0.0 mm
05:40 PM 25.4°F-3.7°C 10.7°F-11.8°C 53% 3.0 mph NW4.8 kmh NW -- 30.75 in1041.3 mb 0.00 in0.0 mm 0.00 in0.0 mm 0.00 in0.0 mm
05:45 PM 25.3°F-3.7°C 10.6°F-11.9°C 53% 3.0 mph NW4.8 kmh NW -- 30.75 in1041.3 mb 0.00 in0.0 mm 0.00 in0.0 mm 0.00 in0.0 mm
05:50 PM 25.2°F-3.8°C 10.9°F-11.7°C 54% 3.0 mph NW4.8 kmh NW -- 30.75 in1041.3 mb 0.00 in0.0 mm 0.00 in0.0 mm 0.00 in0.0 mm
05:55 PM 25.3°F-3.7°C 11.0°F-11.7°C 54% 3.0 mph NW4.8 kmh NW -- 30.75 in1041.3 mb 0.00 in0.0 mm 0.00 in0.0 mm 0.00 in0.0 mm
06:00 PM 25.3°F-3.7°C 11.0°F-11.7°C 54% 2.0 mph WNW3.2 kmh WNW -- 30.75 in1041.3 mb 0.00 in0.0 mm 0.00 in0.0 mm 0.00 in0.0 mm
06:05 PM 25.3°F-3.7°C 11.0°F-11.7°C 54% 3.0 mph NW4.8 kmh NW -- 30.75 in1041.3 mb 0.00 in0.0 mm 0.00 in0.0 mm 0.00 in0.0 mm
06:10 PM 25.2°F-3.8°C 11.3°F-11.5°C 55% 3.0 mph NW4.8 kmh NW 7.0 mph11.3 kmh 30.75 in1041.3 mb 0.00 in0.0 mm 0.00 in0.0 mm 0.00 in0.0 mm
06:15 PM 25.1°F-3.8°C 11.6°F-11.3°C 56% 2.0 mph NW3.2 kmh NW 7.0 mph11.3 kmh 30.75 in1041.3 mb 0.00 in0.0 mm 0.00 in0.0 mm 0.00 in0.0 mm
06:20 PM 25.0°F-3.9°C 11.5°F-11.4°C 56% 3.0 mph NW4.8 kmh NW -- 30.75 in1041.3 mb 0.00 in0.0 mm 0.00 in0.0 mm 0.00 in0.0 mm
06:25 PM 24.9°F-3.9°C 11.5°F-11.4°C 56% 2.0 mph NW3.2 kmh NW -- 30.76 in1041.7 mb 0.00 in0.0 mm 0.00 in0.0 mm 0.00 in0.0 mm
06:30 PM 24.8°F-4.0°C 11.8°F-11.2°C 57% 4.0 mph NW6.4 kmh NW -- 30.76 in1041.7 mb 0.00 in0.0 mm 0.00 in0.0 mm 0.00 in0.0 mm
06:35 PM 24.7°F-4.1°C 11.7°F-11.3°C 57% 4.0 mph NW6.4 kmh NW -- 30.76 in1041.7 mb 0.00 in0.0 mm 0.00 in0.0 mm 0.00 in0.0 mm
06:40 PM 24.6°F-4.1°C 11.6°F-11.3°C 57% 5.0 mph NW8.0 kmh NW -- 30.76 in1041.7 mb 0.00 in0.0 mm 0.00 in0.0 mm 0.00 in0.0 mm
06:45 PM 24.5°F-4.2°C 11.9°F-11.2°C 58% 2.0 mph NW3.2 kmh NW -- 30.75 in1041.3 mb 0.00 in0.0 mm 0.00 in0.0 mm 0.00 in0.0 mm
06:50 PM 24.5°F-4.2°C 11.9°F-11.2°C 58% 4.0 mph NW6.4 kmh NW -- 30.76 in1041.7 mb 0.00 in0.0 mm 0.00 in0.0 mm 0.00 in0.0 mm
06:55 PM 24.4°F-4.2°C 11.8°F-11.2°C 58% 5.0 mph NW8.0 kmh NW -- 30.76 in1041.7 mb 0.00 in0.0 mm 0.00 in0.0 mm 0.00 in0.0 mm
07:00 PM 24.4°F-4.2°C 12.2°F-11.0°C 59% Calm Calm 5.0 mph8.0 kmh 30.76 in1041.7 mb 0.00 in0.0 mm 0.00 in0.0 mm 0.00 in0.0 mm
07:05 PM 24.4°F-4.2°C 12.5°F-10.8°C 60% Calm Calm 5.0 mph8.0 kmh 30.76 in1041.7 mb 0.00 in0.0 mm 0.00 in0.0 mm 0.00 in0.0 mm
07:10 PM 24.4°F-4.2°C 12.5°F-10.8°C 60% Calm Calm -- 30.76 in1041.7 mb 0.00 in0.0 mm 0.00 in0.0 mm 0.00 in0.0 mm
07:15 PM 24.3°F-4.3°C 12.1°F-11.1°C 59% Calm Calm -- 30.76 in1041.7 mb 0.00 in0.0 mm 0.00 in0.0 mm 0.00 in0.0 mm
07:20 PM 24.3°F-4.3°C 12.4°F-10.9°C 60% Calm Calm -- 30.77 in1042.0 mb 0.00 in0.0 mm 0.00 in0.0 mm 0.00 in0.0 mm
07:25 PM 24.3°F-4.3°C 12.8°F-10.7°C 61% Calm Calm -- 30.78 in1042.3 mb 0.00 in0.0 mm 0.00 in0.0 mm 0.00 in0.0 mm
07:30 PM 24.2°F-4.3°C 12.7°F-10.7°C 61% Calm Calm -- 30.78 in1042.3 mb 0.00 in0.0 mm 0.00 in0.0 mm 0.00 in0.0 mm
07:35 PM 24.2°F-4.3°C 12.7°F-10.7°C 61% Calm Calm -- 30.78 in1042.3 mb 0.00 in0.0 mm 0.00 in0.0 mm 0.00 in0.0 mm
07:40 PM 24.2°F-4.3°C 12.7°F-10.7°C 61% Calm Calm -- 30.79 in1042.7 mb 0.00 in0.0 mm 0.00 in0.0 mm 0.00 in0.0 mm
07:45 PM 24.1°F-4.4°C 12.6°F-10.8°C 61% 4.0 mph NW6.4 kmh NW -- 30.78 in1042.3 mb 0.00 in0.0 mm 0.00 in0.0 mm 0.00 in0.0 mm
07:50 PM 24.1°F-4.4°C 12.6°F-10.8°C 61% 2.0 mph NW3.2 kmh NW 5.0 mph8.0 kmh 30.79 in1042.7 mb 0.00 in0.0 mm 0.00 in0.0 mm 0.00 in0.0 mm
07:55 PM 24.0°F-4.4°C 12.9°F-10.6°C 62% 2.0 mph NW3.2 kmh NW 5.0 mph8.0 kmh 30.79 in1042.7 mb 0.00 in0.0 mm 0.00 in0.0 mm 0.00 in0.0 mm
08:00 PM 24.0°F-4.4°C 12.9°F-10.6°C 62% Calm Calm -- 30.78 in1042.3 mb 0.00 in0.0 mm 0.00 in0.0 mm 0.00 in0.0 mm
08:05 PM 24.0°F-4.4°C 13.3°F-10.4°C 63% Calm Calm -- 30.78 in1042.3 mb 0.00 in0.0 mm 0.00 in0.0 mm 0.00 in0.0 mm
08:10 PM 23.9°F-4.5°C 13.5°F-10.3°C 64% 1.0 mph NW1.6 kmh NW -- 30.78 in1042.3 mb 0.00 in0.0 mm 0.00 in0.0 mm 0.00 in0.0 mm
08:15 PM 23.8°F-4.6°C 13.4°F-10.3°C 64% 1.0 mph NW1.6 kmh NW -- 30.78 in1042.3 mb 0.00 in0.0 mm 0.00 in0.0 mm 0.00 in0.0 mm
08:20 PM 23.8°F-4.6°C 13.4°F-10.3°C 64% 1.0 mph NW1.6 kmh NW -- 30.78 in1042.3 mb 0.00 in0.0 mm 0.00 in0.0 mm 0.00 in0.0 mm
08:25 PM 23.7°F-4.6°C 13.7°F-10.2°C 65% Calm Calm -- 30.78 in1042.3 mb 0.00 in0.0 mm 0.00 in0.0 mm 0.00 in0.0 mm
08:30 PM 23.6°F-4.7°C 13.6°F-10.2°C 65% 1.0 mph NW1.6 kmh NW -- 30.78 in1042.3 mb 0.00 in0.0 mm 0.00 in0.0 mm 0.00 in0.0 mm
08:35 PM 23.6°F-4.7°C 13.6°F-10.2°C 65% 2.0 mph NW3.2 kmh NW -- 30.78 in1042.3 mb 0.00 in0.0 mm 0.00 in0.0 mm 0.00 in0.0 mm
08:40 PM 23.6°F-4.7°C 13.6°F-10.2°C 65% 2.0 mph NW3.2 kmh NW 5.0 mph8.0 kmh 30.78 in1042.3 mb 0.00 in0.0 mm 0.00 in0.0 mm 0.00 in0.0 mm
08:45 PM 23.5°F-4.7°C 13.8°F-10.1°C 66% 4.0 mph NW6.4 kmh NW 5.0 mph8.0 kmh 30.78 in1042.3 mb 0.00 in0.0 mm 0.00 in0.0 mm 0.00 in0.0 mm
08:50 PM 23.5°F-4.7°C 13.8°F-10.1°C 66% 2.0 mph NW3.2 kmh NW -- 30.78 in1042.3 mb 0.00 in0.0 mm 0.00 in0.0 mm 0.00 in0.0 mm
08:55 PM 23.4°F-4.8°C 13.7°F-10.2°C 66% 1.0 mph NW1.6 kmh NW -- 30.78 in1042.3 mb 0.00 in0.0 mm 0.00 in0.0 mm 0.00 in0.0 mm
09:00 PM 23.4°F-4.8°C 14.1°F-9.9°C 67% Calm Calm -- 30.78 in1042.3 mb 0.00 in0.0 mm 0.00 in0.0 mm 0.00 in0.0 mm
09:05 PM 23.3°F-4.8°C 14.0°F-10.0°C 67% 1.0 mph NW1.6 kmh NW -- 30.77 in1042.0 mb 0.00 in0.0 mm 0.00 in0.0 mm 0.00 in0.0 mm
09:10 PM 23.2°F-4.9°C 14.2°F-9.9°C 68% Calm Calm -- 30.77 in1042.0 mb 0.00 in0.0 mm 0.00 in0.0 mm 0.00 in0.0 mm
09:15 PM 23.1°F-4.9°C 14.5°F-9.7°C 69% Calm Calm -- 30.77 in1042.0 mb 0.00 in0.0 mm 0.00 in0.0 mm 0.00 in0.0 mm
09:20 PM 23.0°F-5.0°C 14.4°F-9.8°C 69% Calm Calm -- 30.78 in1042.3 mb 0.00 in0.0 mm 0.00 in0.0 mm 0.00 in0.0 mm
09:25 PM 22.9°F-5.1°C 14.6°F-9.7°C 70% 1.0 mph NW1.6 kmh NW -- 30.77 in1042.0 mb 0.00 in0.0 mm 0.00 in0.0 mm 0.00 in0.0 mm
09:30 PM 22.8°F-5.1°C 14.2°F-9.9°C 69% Calm Calm 3.0 mph4.8 kmh 30.77 in1042.0 mb 0.00 in0.0 mm 0.00 in0.0 mm 0.00 in0.0 mm
09:35 PM 22.8°F-5.1°C 14.2°F-9.9°C 69% Calm Calm 3.0 mph4.8 kmh 30.77 in1042.0 mb 0.00 in0.0 mm 0.00 in0.0 mm 0.00 in0.0 mm
09:40 PM 22.7°F-5.2°C 14.4°F-9.8°C 70% Calm Calm -- 30.77 in1042.0 mb 0.00 in0.0 mm 0.00 in0.0 mm 0.00 in0.0 mm
09:45 PM 22.7°F-5.2°C 14.4°F-9.8°C 70% Calm Calm -- 30.77 in1042.0 mb 0.00 in0.0 mm 0.00 in0.0 mm 0.00 in0.0 mm
09:50 PM 22.6°F-5.2°C 14.3°F-9.8°C 70% Calm Calm -- 30.77 in1042.0 mb 0.00 in0.0 mm 0.00 in0.0 mm 0.00 in0.0 mm
09:55 PM 22.5°F-5.3°C 14.2°F-9.9°C 70% Calm Calm -- 30.77 in1042.0 mb 0.00 in0.0 mm 0.00 in0.0 mm 0.00 in0.0 mm
10:00 PM 22.5°F-5.3°C 14.5°F-9.7°C 71% Calm Calm -- 30.77 in1042.0 mb 0.00 in0.0 mm 0.00 in0.0 mm 0.00 in0.0 mm
10:05 PM 22.4°F-5.3°C 14.4°F-9.8°C 71% Calm Calm -- 30.77 in1042.0 mb 0.00 in0.0 mm 0.00 in0.0 mm 0.00 in0.0 mm
10:10 PM 22.4°F-5.3°C 14.4°F-9.8°C 71% Calm Calm -- 30.77 in1042.0 mb 0.00 in0.0 mm 0.00 in0.0 mm 0.00 in0.0 mm
10:15 PM 22.3°F-5.4°C 14.3°F-9.8°C 71% Calm Calm -- 30.77 in1042.0 mb 0.00 in0.0 mm 0.00 in0.0 mm 0.00 in0.0 mm
10:20 PM 22.2°F-5.4°C 14.3°F-9.8°C 71% Calm Calm -- 30.77 in1042.0 mb 0.00 in0.0 mm 0.00 in0.0 mm 0.00 in0.0 mm
10:25 PM 22.1°F-5.5°C 14.2°F-9.9°C 71% Calm Calm -- 30.76 in1041.7 mb 0.00 in0.0 mm 0.00 in0.0 mm 0.00 in0.0 mm
10:30 PM 22.0°F-5.6°C 14.4°F-9.8°C 72% Calm Calm -- 30.77 in1042.0 mb 0.00 in0.0 mm 0.00 in0.0 mm 0.00 in0.0 mm
10:35 PM 21.9°F-5.6°C 14.3°F-9.8°C 72% Calm Calm -- 30.76 in1041.7 mb 0.00 in0.0 mm 0.00 in0.0 mm 0.00 in0.0 mm
10:40 PM 21.8°F-5.7°C 14.2°F-9.9°C 72% Calm Calm -- 30.77 in1042.0 mb 0.00 in0.0 mm 0.00 in0.0 mm 0.00 in0.0 mm
10:45 PM 21.8°F-5.7°C 14.5°F-9.7°C 73% Calm Calm -- 30.77 in1042.0 mb 0.00 in0.0 mm 0.00 in0.0 mm 0.00 in0.0 mm
10:50 PM 21.8°F-5.7°C 14.5°F-9.7°C 73% Calm Calm -- 30.77 in1042.0 mb 0.00 in0.0 mm 0.00 in0.0 mm 0.00 in0.0 mm
10:55 PM 21.8°F-5.7°C 14.5°F-9.7°C 73% Calm Calm -- 30.77 in1042.0 mb 0.00 in0.0 mm 0.00 in0.0 mm 0.00 in0.0 mm
11:00 PM 21.7°F-5.7°C 14.4°F-9.8°C 73% Calm Calm -- 30.77 in1042.0 mb 0.00 in0.0 mm 0.00 in0.0 mm 0.00 in0.0 mm
11:05 PM 21.7°F-5.7°C 14.4°F-9.8°C 73% Calm Calm -- 30.76 in1041.7 mb 0.00 in0.0 mm 0.00 in0.0 mm 0.00 in0.0 mm
11:10 PM 21.6°F-5.8°C 14.3°F-9.8°C 73% Calm Calm -- 30.77 in1042.0 mb 0.00 in0.0 mm 0.00 in0.0 mm 0.00 in0.0 mm
11:15 PM 21.5°F-5.8°C 14.5°F-9.7°C 74% Calm Calm -- 30.77 in1042.0 mb 0.00 in0.0 mm 0.00 in0.0 mm 0.00 in0.0 mm
11:20 PM 21.5°F-5.8°C 14.5°F-9.7°C 74% Calm Calm -- 30.77 in1042.0 mb 0.00 in0.0 mm 0.00 in0.0 mm 0.00 in0.0 mm
11:25 PM 21.3°F-5.9°C 14.6°F-9.7°C 75% Calm Calm -- 30.77 in1042.0 mb 0.00 in0.0 mm 0.00 in0.0 mm 0.00 in0.0 mm
11:30 PM 21.3°F-5.9°C 14.6°F-9.7°C 75% Calm Calm -- 30.77 in1042.0 mb 0.00 in0.0 mm 0.00 in0.0 mm 0.00 in0.0 mm
11:35 PM 21.2°F-6.0°C 14.8°F-9.6°C 76% Calm Calm -- 30.77 in1042.0 mb 0.00 in0.0 mm 0.00 in0.0 mm 0.00 in0.0 mm
11:40 PM 21.2°F-6.0°C 14.8°F-9.6°C 76% Calm Calm -- 30.77 in1042.0 mb 0.00 in0.0 mm 0.00 in0.0 mm 0.00 in0.0 mm
11:45 PM 21.1°F-6.1°C 14.7°F-9.6°C 76% Calm Calm -- 30.76 in1041.7 mb 0.00 in0.0 mm 0.00 in0.0 mm 0.00 in0.0 mm
11:50 PM 21.1°F-6.1°C 14.7°F-9.6°C 76% Calm Calm -- 30.76 in1041.7 mb 0.00 in0.0 mm 0.00 in0.0 mm 0.00 in0.0 mm
11:55 PM 21.0°F-6.1°C 14.6°F-9.7°C 76% Calm Calm -- 30.77 in1042.0 mb 0.00 in0.0 mm 0.00 in0.0 mm 0.00 in0.0 mm